createdAt,value
2022-07-29T00:00:51.079Z,59.55
2022-07-29T00:03:23.752Z,59.60
2022-07-29T00:05:56.600Z,59.55
2022-07-29T00:08:29.259Z,59.90
2022-07-29T00:11:02.201Z,60.26
2022-07-29T00:13:34.849Z,60.25
2022-07-29T00:16:07.521Z,60.53
2022-07-29T00:18:40.484Z,60.31
2022-07-29T00:21:13.044Z,60.22
2022-07-29T00:23:45.501Z,60.92
2022-07-29T00:26:18.133Z,60.52
2022-07-29T00:28:50.624Z,60.75
2022-07-29T00:31:23.207Z,60.77
2022-07-29T00:33:55.878Z,60.80
2022-07-29T00:36:28.563Z,60.94
2022-07-29T00:39:01.118Z,60.67
2022-07-29T00:41:33.761Z,60.83
2022-07-29T00:44:06.509Z,61.34
2022-07-29T00:46:39.369Z,61.78
2022-07-29T00:49:12.341Z,62.51
2022-07-29T00:51:45.592Z,62.05
2022-07-29T00:54:19.470Z,61.73
2022-07-29T00:56:52.327Z,62.05
2022-07-29T00:59:24.961Z,61.82
2022-07-29T01:02:07.710Z,62.92
2022-07-29T01:04:40.806Z,63.33
2022-07-29T01:07:14.110Z,67.06
2022-07-29T01:09:47.811Z,66.22
2022-07-29T01:12:25.297Z,67.91
2022-07-29T01:14:57.799Z,69.87
2022-07-29T01:17:53.630Z,70.53
2022-07-29T01:21:00.301Z,71.69
2022-07-29T01:23:54.304Z,73.31
2022-07-29T01:26:36.021Z,75.79
2022-07-29T01:29:23.634Z,76.20
2022-07-29T01:32:03.519Z,77.79
2022-07-29T01:34:51.626Z,79.08
2022-07-29T01:37:30.762Z,79.78
2022-07-29T01:40:05.815Z,80.11
2022-07-29T01:42:44.481Z,80.23
2022-07-29T01:45:23.049Z,80.59
2022-07-29T01:48:03.071Z,81.31
2022-07-29T01:50:49.983Z,81.45
2022-07-29T01:53:34.843Z,81.80
2022-07-29T01:56:12.156Z,81.41
2022-07-29T01:58:47.387Z,81.76
2022-07-29T02:01:23.405Z,83.59
2022-07-29T02:03:57.885Z,83.31
2022-07-29T02:06:37.183Z,83.67
2022-07-29T02:09:13.309Z,83.98
2022-07-29T02:11:52.254Z,84.04
2022-07-29T02:14:27.838Z,85.09
2022-07-29T02:17:02.684Z,85.09
2022-07-29T02:19:38.684Z,85.26
2022-07-29T02:22:13.476Z,85.27
2022-07-29T02:24:48.639Z,85.43
2022-07-29T02:27:21.732Z,85.11
2022-07-29T02:29:55.759Z,85.02
2022-07-29T02:32:29.794Z,85.40
2022-07-29T02:35:03.990Z,85.42
2022-07-29T02:37:38.353Z,85.17
2022-07-29T02:40:15.454Z,85.23
2022-07-29T02:42:48.399Z,85.39
2022-07-29T02:45:20.996Z,85.60
2022-07-29T02:47:56.927Z,84.96
2022-07-29T02:50:35.028Z,85.01
2022-07-29T02:53:18.887Z,85.05
2022-07-29T02:56:03.061Z,84.66
2022-07-29T02:58:43.545Z,84.91
2022-07-29T03:01:21.896Z,85.29
2022-07-29T03:03:55.506Z,85.76
2022-07-29T03:06:38.140Z,86.25
2022-07-29T03:09:13.871Z,86.25
2022-07-29T03:11:49.962Z,86.06
2022-07-29T03:14:25.051Z,85.80
2022-07-29T03:16:58.372Z,85.87
2022-07-29T03:19:32.005Z,85.84
2022-07-29T03:22:05.132Z,85.39
2022-07-29T03:24:37.873Z,85.10
2022-07-29T03:27:10.451Z,85.37
2022-07-29T03:29:43.684Z,85.05
2022-07-29T03:32:24.056Z,85.40
2022-07-29T03:34:57.799Z,85.17
2022-07-29T03:37:31.528Z,85.18
2022-07-29T03:40:08.423Z,85.13
2022-07-29T03:42:44.645Z,85.03
2022-07-29T03:45:20.605Z,85.39
2022-07-29T03:48:00.850Z,85.31
2022-07-29T03:50:34.771Z,85.29
2022-07-29T03:53:07.570Z,85.22
2022-07-29T03:55:47.119Z,84.88
2022-07-29T03:58:35.581Z,85.14
2022-07-29T04:01:08.442Z,85.24
2022-07-29T04:03:40.994Z,85.07
2022-07-29T04:06:13.549Z,85.63
2022-07-29T04:08:46.206Z,85.52
2022-07-29T04:11:18.950Z,85.61
2022-07-29T04:13:51.525Z,85.76
2022-07-29T04:16:24.011Z,86.00
2022-07-29T04:18:56.598Z,86.06
2022-07-29T04:21:29.095Z,85.92
2022-07-29T04:24:01.514Z,86.05
2022-07-29T04:26:34.618Z,86.22
2022-07-29T04:29:07.090Z,85.90
2022-07-29T04:31:39.528Z,86.00
2022-07-29T04:34:12.866Z,86.05
2022-07-29T04:36:46.157Z,86.20
2022-07-29T04:39:22.973Z,86.66
2022-07-29T04:41:56.521Z,86.37
2022-07-29T04:44:29.761Z,86.63
2022-07-29T04:47:02.773Z,86.42
2022-07-29T04:49:35.321Z,86.50
2022-07-29T04:52:08.013Z,86.44
2022-07-29T04:54:40.457Z,86.41
2022-07-29T04:57:12.918Z,86.61
2022-07-29T04:59:45.364Z,86.34
2022-07-29T05:02:17.977Z,86.61
2022-07-29T05:04:50.484Z,87.02
2022-07-29T05:07:23.257Z,86.96
2022-07-29T05:09:58.343Z,87.15
2022-07-29T05:12:30.991Z,86.67
2022-07-29T05:15:03.729Z,87.17
2022-07-29T05:17:36.435Z,87.03
2022-07-29T05:20:09.600Z,87.16
2022-07-29T05:22:42.026Z,87.16
2022-07-29T05:25:14.592Z,87.23
2022-07-29T05:27:47.161Z,87.07
2022-07-29T05:30:23.757Z,87.10
2022-07-29T05:32:56.456Z,87.06
2022-07-29T05:35:29.529Z,86.79
2022-07-29T05:38:02.219Z,86.95
2022-07-29T05:40:35.177Z,86.77
2022-07-29T05:43:08.103Z,87.25
2022-07-29T05:45:49.914Z,87.22
2022-07-29T05:48:23.997Z,86.99
2022-07-29T05:50:56.547Z,86.61
2022-07-29T05:53:29.111Z,86.29
2022-07-29T05:56:05.709Z,85.97
2022-07-29T05:58:38.326Z,85.93
2022-07-29T06:01:10.797Z,85.24
2022-07-29T06:03:44.209Z,84.98
2022-07-29T06:06:16.713Z,84.78
2022-07-29T06:08:49.426Z,84.63
2022-07-29T06:11:22.059Z,84.10
2022-07-29T06:13:54.634Z,84.04
2022-07-29T06:16:28.902Z,83.57
2022-07-29T06:19:02.848Z,83.15
2022-07-29T06:21:35.525Z,82.08
2022-07-29T06:24:15.816Z,82.10
2022-07-29T06:26:48.758Z,82.64
2022-07-29T06:29:21.228Z,82.17
2022-07-29T06:31:53.666Z,82.35
2022-07-29T06:34:26.585Z,82.39
2022-07-29T06:36:59.182Z,81.99
2022-07-29T06:39:32.104Z,81.87
2022-07-29T06:42:05.583Z,81.53
2022-07-29T06:44:38.869Z,81.87
2022-07-29T06:47:11.306Z,82.00
2022-07-29T06:49:43.712Z,82.27
2022-07-29T06:52:16.210Z,81.87
2022-07-29T06:54:49.260Z,82.63
2022-07-29T06:57:22.644Z,81.84
2022-07-29T06:59:57.451Z,82.50
2022-07-29T07:02:29.819Z,81.94
2022-07-29T07:05:02.246Z,82.19
2022-07-29T07:07:34.806Z,82.12
2022-07-29T07:10:07.631Z,82.53
2022-07-29T07:12:40.023Z,82.28
2022-07-29T07:15:12.494Z,81.92
2022-07-29T07:17:45.118Z,81.63
2022-07-29T07:20:18.739Z,80.92
2022-07-29T07:22:51.168Z,80.96
2022-07-29T07:25:23.639Z,80.58
2022-07-29T07:27:56.178Z,79.96
2022-07-29T07:30:28.869Z,80.12
2022-07-29T07:33:01.830Z,79.46
2022-07-29T07:35:34.635Z,79.57
2022-07-29T07:38:07.274Z,80.08
2022-07-29T07:40:40.078Z,80.21
2022-07-29T07:43:12.600Z,79.79
2022-07-29T07:45:45.257Z,79.57
2022-07-29T07:48:18.052Z,78.66
2022-07-29T07:50:51.649Z,78.54
2022-07-29T07:53:24.911Z,77.96
2022-07-29T07:56:10.500Z,77.80
2022-07-29T07:58:44.230Z,76.84
2022-07-29T08:01:19.993Z,75.90
2022-07-29T08:03:52.742Z,76.05
2022-07-29T08:06:26.093Z,75.60
2022-07-29T08:09:19.514Z,75.31
2022-07-29T08:11:52.524Z,74.54
2022-07-29T08:14:26.157Z,73.99
2022-07-29T08:16:58.935Z,74.20
2022-07-29T08:19:31.685Z,73.58
2022-07-29T08:22:04.363Z,73.82
2022-07-29T08:24:53.215Z,74.30
2022-07-29T08:27:42.835Z,74.05
2022-07-29T08:30:16.251Z,71.95
2022-07-29T08:32:54.094Z,71.23
2022-07-29T08:35:29.165Z,71.00
2022-07-29T08:38:04.857Z,70.01
2022-07-29T08:40:37.551Z,70.05
2022-07-29T08:43:10.472Z,69.42
2022-07-29T08:45:51.570Z,69.61
2022-07-29T08:48:24.698Z,69.31
2022-07-29T08:50:57.798Z,67.97
2022-07-29T08:53:30.377Z,69.13
2022-07-29T08:56:03.700Z,68.55
2022-07-29T08:58:37.585Z,68.85
2022-07-29T09:01:15.119Z,68.71
2022-07-29T09:03:47.865Z,68.98
2022-07-29T09:06:22.718Z,68.47
2022-07-29T09:08:59.443Z,68.06
2022-07-29T09:11:33.529Z,67.69
2022-07-29T09:14:08.562Z,65.96
2022-07-29T09:17:01.055Z,66.73
2022-07-29T09:19:36.417Z,66.86
2022-07-29T09:22:11.626Z,66.42
2022-07-29T09:24:48.926Z,66.22
2022-07-29T09:27:24.143Z,65.29
2022-07-29T09:30:08.059Z,65.09
2022-07-29T09:32:58.269Z,64.63
2022-07-29T09:35:32.383Z,64.95
2022-07-29T09:38:15.438Z,63.27
2022-07-29T09:41:05.562Z,62.07
2022-07-29T09:43:39.467Z,62.30
2022-07-29T09:46:15.889Z,62.76
2022-07-29T09:49:20.312Z,63.65
2022-07-29T09:52:02.442Z,62.92
2022-07-29T09:54:42.313Z,63.67
2022-07-29T09:57:30.966Z,62.58
2022-07-29T10:00:12.643Z,61.45
2022-07-29T10:02:47.519Z,60.72
2022-07-29T10:05:36.314Z,60.83
2022-07-29T10:08:11.549Z,61.13
2022-07-29T10:10:53.210Z,61.05
2022-07-29T10:13:27.665Z,60.02
2022-07-29T10:16:01.670Z,59.35
2022-07-29T10:18:35.402Z,59.22
2022-07-29T10:21:10.027Z,58.87
2022-07-29T10:23:46.916Z,58.99
2022-07-29T10:26:21.738Z,58.51
2022-07-29T10:28:54.637Z,58.12
2022-07-29T10:31:43.569Z,58.61
2022-07-29T10:34:40.064Z,57.32
2022-07-29T10:37:55.074Z,56.67
2022-07-29T10:41:08.674Z,56.47
2022-07-29T10:43:48.781Z,56.21
2022-07-29T10:46:26.462Z,55.37
2022-07-29T10:49:15.285Z,48.60
2022-07-29T10:51:59.499Z,48.74
2022-07-29T10:54:44.181Z,47.86
2022-07-29T10:57:26.009Z,47.31
2022-07-29T11:00:30.167Z,47.12
2022-07-29T11:03:10.465Z,46.94
2022-07-29T11:05:59.858Z,46.45
2022-07-29T11:08:37.236Z,46.50
2022-07-29T11:11:25.277Z,46.62
2022-07-29T11:14:05.650Z,46.41
2022-07-29T11:17:05.865Z,45.61
2022-07-29T11:19:44.760Z,45.71
2022-07-29T11:22:46.074Z,45.84
2022-07-29T11:25:50.417Z,45.30
2022-07-29T11:28:23.040Z,45.39
2022-07-29T11:30:59.244Z,44.49
2022-07-29T11:36:28.018Z,44.24
2022-07-29T11:39:26.304Z,43.83
2022-07-29T11:42:17.810Z,43.45
2022-07-29T11:45:42.049Z,42.82
2022-07-29T11:48:29.147Z,42.58
2022-07-29T11:50:58.724Z,43.06
2022-07-29T11:53:32.861Z,42.68
2022-07-29T11:56:09.770Z,42.18
2022-07-29T11:58:42.863Z,41.84
2022-07-29T12:01:18.455Z,41.47
2022-07-29T12:04:04.157Z,42.45
2022-07-29T12:06:39.501Z,42.92
2022-07-29T12:09:14.455Z,42.18
2022-07-29T12:11:51.586Z,42.87
2022-07-29T12:14:31.526Z,43.36
2022-07-29T12:17:04.074Z,43.29
2022-07-29T12:19:45.069Z,43.38
2022-07-29T12:22:29.590Z,43.67
2022-07-29T12:25:32.112Z,42.99
2022-07-29T12:28:07.532Z,42.51
2022-07-29T12:30:46.293Z,40.80
2022-07-29T12:33:23.215Z,40.36
2022-07-29T12:36:06.209Z,40.36
2022-07-29T12:38:41.804Z,40.53
2022-07-29T12:41:14.297Z,41.10
2022-07-29T12:43:55.025Z,41.22
2022-07-29T12:46:27.984Z,41.23
2022-07-29T12:49:00.596Z,41.33
2022-07-29T12:51:41.423Z,40.97
2022-07-29T12:54:16.423Z,41.86
2022-07-29T12:57:00.094Z,41.46
2022-07-29T12:59:32.835Z,41.69
2022-07-29T13:02:07.790Z,40.72
2022-07-29T13:04:40.691Z,41.00
2022-07-29T13:07:21.332Z,40.89
2022-07-29T13:10:24.059Z,40.22
2022-07-29T13:13:11.583Z,39.64
2022-07-29T13:15:45.827Z,39.44
2022-07-29T13:18:37.181Z,38.38
2022-07-29T13:21:14.848Z,38.84
2022-07-29T13:23:47.642Z,39.26
2022-07-29T13:26:20.693Z,39.31
2022-07-29T13:28:53.666Z,38.99
2022-07-29T13:31:26.472Z,39.05
2022-07-29T13:33:59.845Z,38.39
2022-07-29T13:36:32.441Z,38.77
2022-07-29T13:39:05.916Z,38.16
2022-07-29T13:41:39.322Z,38.31
2022-07-29T13:44:12.111Z,38.04
2022-07-29T13:46:45.112Z,38.16
2022-07-29T13:49:17.871Z,37.79
2022-07-29T13:51:50.932Z,37.64
2022-07-29T13:54:23.730Z,36.33
2022-07-29T13:56:56.578Z,36.17
2022-07-29T13:59:29.169Z,36.65
2022-07-29T14:02:01.928Z,36.08
2022-07-29T14:04:34.915Z,35.94
2022-07-29T14:07:07.965Z,35.83
2022-07-29T14:09:43.468Z,35.82
2022-07-29T14:12:16.394Z,35.59
2022-07-29T14:14:49.163Z,35.36
2022-07-29T14:17:21.850Z,35.49
2022-07-29T14:19:54.435Z,35.28
2022-07-29T14:22:27.163Z,35.77
2022-07-29T14:25:05.124Z,36.08
2022-07-29T14:27:47.294Z,36.02
2022-07-29T14:30:20.411Z,36.49
2022-07-29T14:32:59.621Z,35.87
2022-07-29T14:35:32.177Z,36.00
2022-07-29T14:38:05.021Z,34.91
2022-07-29T14:40:37.897Z,35.77
2022-07-29T14:43:10.691Z,36.31
2022-07-29T14:48:40.096Z,36.30
2022-07-29T14:51:13.023Z,36.11
2022-07-29T14:53:45.789Z,35.92
2022-07-29T14:56:35.513Z,36.31
2022-07-29T14:59:09.801Z,36.44
2022-07-29T15:01:42.602Z,37.04
2022-07-29T15:04:15.420Z,37.00
2022-07-29T15:06:54.581Z,36.62
2022-07-29T15:09:28.806Z,37.00
2022-07-29T15:12:03.634Z,36.95
2022-07-29T15:14:36.318Z,36.81
2022-07-29T15:17:08.891Z,36.44
2022-07-29T15:19:44.823Z,36.03
2022-07-29T15:22:18.777Z,35.99
2022-07-29T15:24:51.561Z,35.51
2022-07-29T15:27:24.358Z,35.00
2022-07-29T15:29:57.055Z,34.51
2022-07-29T15:32:30.068Z,34.32
2022-07-29T15:35:05.002Z,33.89
2022-07-29T15:37:48.865Z,33.96
2022-07-29T15:40:22.218Z,33.35
2022-07-29T15:42:55.117Z,33.30
2022-07-29T15:45:32.566Z,33.12
2022-07-29T15:48:08.339Z,33.43
2022-07-29T15:50:40.785Z,32.71
2022-07-29T15:53:13.320Z,32.42
2022-07-29T15:55:45.789Z,32.34
2022-07-29T15:58:18.949Z,32.90
2022-07-29T16:00:51.576Z,33.26
2022-07-29T16:03:24.813Z,33.01
2022-07-29T16:06:00.405Z,32.43
2022-07-29T16:08:33.200Z,32.73
2022-07-29T16:11:05.860Z,33.13
2022-07-29T16:13:38.423Z,33.56
2022-07-29T16:16:10.984Z,33.52
2022-07-29T16:18:43.559Z,33.41
2022-07-29T16:21:16.165Z,34.63
2022-07-29T16:23:48.943Z,35.01
2022-07-29T16:26:21.536Z,34.95
2022-07-29T16:28:54.542Z,34.72
2022-07-29T16:31:27.827Z,34.26
2022-07-29T16:34:00.986Z,34.37
2022-07-29T16:36:33.513Z,33.42
2022-07-29T16:39:06.179Z,33.30
2022-07-29T16:41:39.159Z,33.17
2022-07-29T16:44:11.582Z,32.50
2022-07-29T16:46:45.161Z,33.42
2022-07-29T16:49:19.461Z,33.33
2022-07-29T16:51:53.576Z,32.87
2022-07-29T16:54:26.025Z,33.01
2022-07-29T16:57:00.767Z,32.89
2022-07-29T16:59:34.207Z,32.67
2022-07-29T17:02:16.193Z,33.04
2022-07-29T17:04:48.764Z,33.30
2022-07-29T17:07:21.179Z,33.35
2022-07-29T17:09:55.929Z,33.59
2022-07-29T17:12:29.642Z,33.97
2022-07-29T17:15:03.287Z,34.34
2022-07-29T17:17:36.997Z,35.27
2022-07-29T17:20:12.128Z,34.70
2022-07-29T17:22:50.281Z,34.80
2022-07-29T17:25:22.872Z,34.56
2022-07-29T17:28:00.565Z,35.03
2022-07-29T17:30:33.488Z,35.28
2022-07-29T17:33:05.997Z,35.56
2022-07-29T17:35:57.181Z,35.81
2022-07-29T17:38:29.619Z,35.73
2022-07-29T17:41:02.231Z,36.05
2022-07-29T17:43:40.334Z,36.26
2022-07-29T17:46:12.819Z,36.24
2022-07-29T17:48:45.669Z,36.21
2022-07-29T17:51:18.374Z,36.75
2022-07-29T17:53:51.214Z,37.41
2022-07-29T17:56:26.911Z,37.14
2022-07-29T17:59:01.521Z,37.13
2022-07-29T18:01:34.409Z,37.62
2022-07-29T18:04:08.550Z,37.84
2022-07-29T18:06:41.047Z,38.10
2022-07-29T18:09:13.722Z,38.67
2022-07-29T18:11:47.592Z,38.44
2022-07-29T18:14:20.113Z,38.71
2022-07-29T18:16:58.264Z,39.28
2022-07-29T18:19:31.029Z,39.54
2022-07-29T18:22:10.626Z,39.72
2022-07-29T18:24:43.147Z,39.84
2022-07-29T18:27:15.801Z,40.15
2022-07-29T18:29:51.095Z,40.75
2022-07-29T18:32:28.807Z,41.48
2022-07-29T18:35:05.061Z,41.43
2022-07-29T18:38:01.785Z,41.82
2022-07-29T18:40:30.643Z,42.12
2022-07-29T18:43:03.101Z,41.93
2022-07-29T18:45:35.735Z,42.06
2022-07-29T18:48:13.125Z,42.50
2022-07-29T18:50:46.517Z,42.73
2022-07-29T18:53:21.622Z,44.07
2022-07-29T18:55:58.557Z,44.75
2022-07-29T18:58:33.452Z,45.06
2022-07-29T19:01:06.339Z,45.51
2022-07-29T19:03:41.342Z,45.75
2022-07-29T19:06:13.829Z,46.46
2022-07-29T19:08:46.239Z,46.78
2022-07-29T19:11:18.821Z,46.98
2022-07-29T19:13:53.548Z,47.24
2022-07-29T19:16:26.203Z,47.77
2022-07-29T19:19:00.851Z,47.57
2022-07-29T19:21:33.477Z,48.33
2022-07-29T19:24:11.020Z,48.38
2022-07-29T19:26:49.162Z,48.92
2022-07-29T19:29:23.654Z,49.37
2022-07-29T19:31:56.215Z,49.60
2022-07-29T19:34:32.047Z,49.94
2022-07-29T19:37:07.488Z,50.23
2022-07-29T19:39:40.020Z,50.72
2022-07-29T19:42:12.388Z,50.96
2022-07-29T19:44:46.046Z,51.29
2022-07-29T19:47:18.535Z,51.77
2022-07-29T19:49:50.989Z,51.99
2022-07-29T19:52:23.507Z,52.17
2022-07-29T19:54:56.018Z,52.86
2022-07-29T19:57:28.575Z,53.27
2022-07-29T20:00:14.079Z,53.56
2022-07-29T20:02:48.158Z,53.97
2022-07-29T20:05:20.700Z,54.47
2022-07-29T20:07:53.213Z,54.63
2022-07-29T20:10:25.744Z,54.84
2022-07-29T20:13:01.006Z,55.32
2022-07-29T20:15:33.568Z,55.97
2022-07-29T20:18:11.683Z,56.08
2022-07-29T20:20:44.225Z,56.44
2022-07-29T20:23:18.726Z,56.31
2022-07-29T20:25:51.378Z,56.54
2022-07-29T20:28:23.783Z,56.66
2022-07-29T20:30:56.529Z,56.58
2022-07-29T20:33:29.066Z,57.60
2022-07-29T20:36:01.586Z,58.23
2022-07-29T20:38:34.192Z,58.36
2022-07-29T20:41:07.050Z,58.67
2022-07-29T20:43:39.665Z,59.18
2022-07-29T20:46:12.458Z,59.36
2022-07-29T20:48:47.006Z,59.31
2022-07-29T20:51:20.472Z,59.98
2022-07-29T20:53:53.025Z,60.15
2022-07-29T20:56:25.551Z,59.86
2022-07-29T20:58:57.987Z,60.17
2022-07-29T21:01:30.550Z,60.90
2022-07-29T21:04:03.447Z,61.05
2022-07-29T21:06:38.156Z,61.33
2022-07-29T21:09:11.301Z,61.90
2022-07-29T21:11:45.212Z,62.10
2022-07-29T21:14:41.049Z,62.21
2022-07-29T21:17:15.005Z,62.67
2022-07-29T21:19:47.786Z,62.55
2022-07-29T21:22:22.091Z,62.80
2022-07-29T21:24:54.805Z,63.24
2022-07-29T21:27:49.041Z,63.40
2022-07-29T21:30:22.244Z,63.85
2022-07-29T21:32:54.775Z,63.89
2022-07-29T21:36:01.541Z,64.13
2022-07-29T21:38:20.799Z,64.46
2022-07-29T21:40:53.646Z,64.79
2022-07-29T21:43:26.686Z,65.38
2022-07-29T21:46:00.351Z,65.85
2022-07-29T21:48:32.866Z,66.86
2022-07-29T21:51:05.311Z,67.10
2022-07-29T21:53:37.720Z,68.34
2022-07-29T21:56:14.980Z,68.85
2022-07-29T21:58:47.737Z,69.31
2022-07-29T22:01:20.298Z,69.40
2022-07-29T22:03:52.861Z,70.11
2022-07-29T22:06:25.967Z,71.46
2022-07-29T22:08:58.523Z,72.00
2022-07-29T22:11:31.203Z,72.42
2022-07-29T22:14:05.565Z,73.05
2022-07-29T22:16:38.053Z,74.35
2022-07-29T22:19:10.534Z,75.04
2022-07-29T22:21:43.083Z,76.61
2022-07-29T22:24:15.583Z,77.27
2022-07-29T22:26:48.027Z,78.95
2022-07-29T22:29:20.481Z,78.63
2022-07-29T22:31:53.072Z,79.17
2022-07-29T22:34:25.952Z,81.53
2022-07-29T22:37:09.699Z,82.47
2022-07-29T22:39:42.265Z,83.14
2022-07-29T22:42:14.705Z,83.93
2022-07-29T22:44:47.106Z,84.00
2022-07-29T22:47:45.785Z,84.62
2022-07-29T22:50:12.146Z,86.20
2022-07-29T22:52:45.710Z,86.00
2022-07-29T22:55:18.154Z,86.95
2022-07-29T22:57:50.593Z,87.30
2022-07-29T23:00:23.116Z,87.84
2022-07-29T23:02:55.496Z,88.27
2022-07-29T23:05:27.955Z,88.41
2022-07-29T23:08:00.901Z,89.04
2022-07-29T23:10:33.469Z,88.96
2022-07-29T23:13:05.865Z,89.19
2022-07-29T23:15:38.323Z,89.83
2022-07-29T23:18:10.774Z,89.82
2022-07-29T23:20:43.991Z,90.99
2022-07-29T23:23:16.695Z,90.94
2022-07-29T23:25:49.223Z,91.94
2022-07-29T23:28:22.685Z,92.08
2022-07-29T23:30:55.063Z,92.10
2022-07-29T23:33:27.516Z,92.15
2022-07-29T23:35:59.936Z,92.20
2022-07-29T23:38:32.519Z,92.39
2022-07-29T23:41:08.878Z,92.60
2022-07-29T23:43:41.465Z,92.90
2022-07-29T23:46:13.906Z,93.68
2022-07-29T23:48:47.879Z,94.14
2022-07-29T23:51:20.938Z,94.41
2022-07-29T23:53:54.409Z,95.07
2022-07-29T23:56:26.980Z,95.80
2022-07-29T23:58:59.669Z,96.11
